createdAt,value
2018-12-23T00:00:53.256Z,21.43
2018-12-23T00:03:20.728Z,16.30
2018-12-23T00:05:48.159Z,19.20
2018-12-23T00:08:15.644Z,24.57
2018-12-23T00:10:43.103Z,23.40
2018-12-23T00:13:10.572Z,25.37
2018-12-23T00:15:38.025Z,24.33
2018-12-23T00:18:05.489Z,28.03
2018-12-23T00:20:32.919Z,17.93
2018-12-23T00:23:00.432Z,23.07
2018-12-23T00:25:27.872Z,20.53
2018-12-23T00:27:55.363Z,20.50
2018-12-23T00:30:22.791Z,20.50
2018-12-23T00:32:50.260Z,22.87
2018-12-23T00:35:20.514Z,18.33
2018-12-23T00:37:47.330Z,17.60
2018-12-23T00:40:14.897Z,21.73
2018-12-23T00:42:42.356Z,19.33
2018-12-23T00:45:09.922Z,12.33
2018-12-23T00:47:37.392Z,18.77
2018-12-23T00:50:06.077Z,25.10
2018-12-23T00:52:33.527Z,13.67
2018-12-23T00:55:01.025Z,19.50
2018-12-23T00:57:28.557Z,17.73
2018-12-23T00:59:56.115Z,23.20
2018-12-23T01:02:23.784Z,17.27
2018-12-23T01:04:51.347Z,17.50
2018-12-23T01:07:19.032Z,18.80
2018-12-23T01:09:46.572Z,16.93
2018-12-23T01:12:14.045Z,17.40
2018-12-23T01:14:41.477Z,26.37
2018-12-23T01:17:08.992Z,14.07
2018-12-23T01:19:36.424Z,19.07
2018-12-23T01:22:03.988Z,24.20
2018-12-23T01:24:31.455Z,23.30
2018-12-23T01:26:58.884Z,25.60
2018-12-23T01:29:26.317Z,19.77
2018-12-23T01:31:53.755Z,21.37
2018-12-23T01:34:21.295Z,25.37
2018-12-23T01:36:48.756Z,17.73
2018-12-23T01:39:16.336Z,25.70
2018-12-23T01:41:43.792Z,18.67
2018-12-23T01:44:11.247Z,21.80
2018-12-23T01:46:38.703Z,28.43
2018-12-23T01:49:06.171Z,23.13
2018-12-23T01:51:33.623Z,19.73
2018-12-23T01:54:01.088Z,24.50
2018-12-23T01:56:28.552Z,23.20
2018-12-23T01:58:55.987Z,21.53
2018-12-23T02:01:23.484Z,27.60
2018-12-23T02:03:50.940Z,29.63
2018-12-23T02:06:18.397Z,21.97
2018-12-23T02:08:45.855Z,21.10
2018-12-23T02:11:13.317Z,31.10
2018-12-23T02:13:40.889Z,22.60
2018-12-23T02:16:08.344Z,30.53
2018-12-23T02:18:35.816Z,26.23
2018-12-23T02:21:03.276Z,19.23
2018-12-23T02:23:30.828Z,23.33
2018-12-23T02:25:58.397Z,22.13
2018-12-23T02:28:25.832Z,37.37
2018-12-23T02:30:53.394Z,30.53
2018-12-23T02:33:20.881Z,32.80
2018-12-23T02:35:55.424Z,23.33
2018-12-23T02:38:17.862Z,28.63
2018-12-23T02:40:45.287Z,26.10
2018-12-23T02:43:12.776Z,25.10
2018-12-23T02:45:40.240Z,32.27
2018-12-23T02:48:07.700Z,25.87
2018-12-23T02:50:35.132Z,22.43
2018-12-23T02:53:02.618Z,30.20
2018-12-23T02:55:30.185Z,28.33
2018-12-23T02:57:57.648Z,29.40
2018-12-23T03:00:25.108Z,29.23
2018-12-23T03:02:52.572Z,31.63
2018-12-23T03:05:20.008Z,25.10
2018-12-23T03:07:47.493Z,30.77
2018-12-23T03:10:14.957Z,34.97
2018-12-23T03:12:42.484Z,32.27
2018-12-23T03:15:09.985Z,26.27
2018-12-23T03:17:37.451Z,33.90
2018-12-23T03:20:05.748Z,21.33
2018-12-23T03:22:33.284Z,30.50
2018-12-23T03:25:00.726Z,29.10
2018-12-23T03:27:28.365Z,31.20
2018-12-23T03:29:55.872Z,21.93
2018-12-23T03:32:23.312Z,28.97
2018-12-23T03:34:50.892Z,24.27
2018-12-23T03:37:18.356Z,29.77
2018-12-23T03:39:45.826Z,22.33
2018-12-23T03:42:13.276Z,29.20
2018-12-23T03:44:40.740Z,24.80
2018-12-23T03:47:08.216Z,28.83
2018-12-23T03:49:35.768Z,30.77
2018-12-23T03:52:03.232Z,41.30
2018-12-23T03:54:30.689Z,31.60
2018-12-23T03:56:58.151Z,29.70
2018-12-23T03:59:25.622Z,31.80
2018-12-23T04:01:53.176Z,35.33
2018-12-23T04:04:20.645Z,32.40
2018-12-23T04:06:48.105Z,30.77
2018-12-23T04:09:15.563Z,36.60
2018-12-23T04:11:42.994Z,37.73
2018-12-23T04:14:10.452Z,39.13
2018-12-23T04:16:37.881Z,30.93
2018-12-23T04:19:05.407Z,29.97
2018-12-23T04:21:32.980Z,35.50
2018-12-23T04:24:00.536Z,42.70
2018-12-23T04:26:27.965Z,41.57
2018-12-23T04:28:55.462Z,41.23
2018-12-23T04:31:23.028Z,37.47
2018-12-23T04:33:50.482Z,35.97
2018-12-23T04:36:17.946Z,35.90
2018-12-23T04:38:45.401Z,49.70
2018-12-23T04:41:12.833Z,47.33
2018-12-23T04:43:40.332Z,50.07
2018-12-23T04:46:07.793Z,39.37
2018-12-23T04:48:35.250Z,40.80
2018-12-23T04:51:02.686Z,48.23
2018-12-23T04:53:30.176Z,42.00
2018-12-23T04:55:57.637Z,45.30
2018-12-23T04:58:25.071Z,37.67
2018-12-23T05:00:52.661Z,48.50
2018-12-23T05:03:20.119Z,45.70
2018-12-23T05:05:47.593Z,49.20
2018-12-23T05:08:15.032Z,45.00
2018-12-23T05:10:42.464Z,55.13
2018-12-23T05:13:09.967Z,60.63
2018-12-23T05:15:37.409Z,49.23
2018-12-23T05:18:04.839Z,48.47
2018-12-23T05:20:32.421Z,48.13
2018-12-23T05:22:59.920Z,46.90
2018-12-23T05:25:27.381Z,62.60
2018-12-23T05:27:54.951Z,48.93
2018-12-23T05:30:22.404Z,48.43
2018-12-23T05:32:49.972Z,47.33
2018-12-23T05:35:17.469Z,49.60
2018-12-23T05:37:44.904Z,56.10
2018-12-23T05:40:12.347Z,48.90
2018-12-23T05:42:39.817Z,42.53
2018-12-23T05:45:07.324Z,49.33
2018-12-23T05:47:34.836Z,46.57
2018-12-23T05:50:02.400Z,47.93
2018-12-23T05:52:29.832Z,55.60
2018-12-23T05:54:57.268Z,50.13
2018-12-23T05:57:24.700Z,40.87
2018-12-23T05:59:52.156Z,66.77
2018-12-23T06:02:19.706Z,52.93
2018-12-23T06:04:47.176Z,49.80
2018-12-23T06:07:14.628Z,44.20
2018-12-23T06:09:42.087Z,47.90
2018-12-23T06:12:09.520Z,44.30
2018-12-23T06:14:37.016Z,51.00
2018-12-23T06:17:04.475Z,48.70
2018-12-23T06:19:31.912Z,44.73
2018-12-23T06:21:59.417Z,46.73
2018-12-23T06:24:26.968Z,41.60
2018-12-23T06:26:54.414Z,42.10
2018-12-23T06:29:21.989Z,37.03
2018-12-23T06:31:49.449Z,55.03
2018-12-23T06:34:16.912Z,46.60
2018-12-23T06:36:44.373Z,49.70
2018-12-23T06:39:11.807Z,53.07
2018-12-23T06:41:39.299Z,51.83
2018-12-23T06:44:06.728Z,47.10
2018-12-23T06:46:34.182Z,49.50
2018-12-23T06:49:01.681Z,50.53
2018-12-23T06:51:29.142Z,51.87
2018-12-23T06:53:56.609Z,51.13
2018-12-23T06:56:24.173Z,58.73
2018-12-23T06:58:51.632Z,49.43
2018-12-23T07:01:19.188Z,56.40
2018-12-23T07:03:46.661Z,47.37
2018-12-23T07:06:14.083Z,63.60
2018-12-23T07:08:41.584Z,50.90
2018-12-23T07:11:09.017Z,46.77
2018-12-23T07:13:36.601Z,48.37
2018-12-23T07:16:04.169Z,51.00
2018-12-23T07:18:31.609Z,55.77
2018-12-23T07:20:59.087Z,50.97
2018-12-23T07:23:26.852Z,54.90
2018-12-23T07:25:54.419Z,49.83
2018-12-23T07:28:21.889Z,56.43
2018-12-23T07:30:49.344Z,45.17
2018-12-23T07:33:16.776Z,50.67
2018-12-23T07:35:44.264Z,57.17
2018-12-23T07:38:11.724Z,50.57
2018-12-23T07:40:39.256Z,60.80
2018-12-23T07:43:06.761Z,44.70
2018-12-23T07:45:34.211Z,50.13
2018-12-23T07:48:01.668Z,41.67
2018-12-23T07:50:29.099Z,43.80
2018-12-23T07:52:56.549Z,51.27
2018-12-23T07:55:23.991Z,49.63
2018-12-23T07:57:51.412Z,53.47
2018-12-23T08:00:18.892Z,40.97
2018-12-23T08:02:46.360Z,47.30
2018-12-23T08:05:13.804Z,46.00
2018-12-23T08:07:41.234Z,43.83
2018-12-23T08:10:08.744Z,48.27
2018-12-23T08:12:36.184Z,49.07
2018-12-23T08:15:03.749Z,50.87
2018-12-23T08:17:31.205Z,39.37
2018-12-23T08:19:58.683Z,42.00
2018-12-23T08:22:26.112Z,40.50
2018-12-23T08:24:53.594Z,39.37
2018-12-23T08:27:21.060Z,36.20
2018-12-23T08:29:48.503Z,50.60
2018-12-23T08:32:15.982Z,37.00
2018-12-23T08:34:43.510Z,40.17
2018-12-23T08:37:11.016Z,34.03
2018-12-23T08:39:38.472Z,41.20
2018-12-23T08:42:06.033Z,44.47
2018-12-23T08:44:33.491Z,26.77
2018-12-23T08:47:00.956Z,35.43
2018-12-23T08:49:28.418Z,32.57
2018-12-23T08:51:55.895Z,35.90
2018-12-23T08:54:23.336Z,37.50
2018-12-23T08:56:50.809Z,45.37
2018-12-23T08:59:18.272Z,36.07
2018-12-23T09:01:45.715Z,37.87
2018-12-23T09:04:13.289Z,31.30
2018-12-23T09:06:40.748Z,28.40
2018-12-23T09:09:08.188Z,38.30
2018-12-23T09:11:42.627Z,38.00
2018-12-23T09:14:05.188Z,32.93
2018-12-23T09:16:32.759Z,37.07
2018-12-23T09:19:00.188Z,32.90
2018-12-23T09:21:27.659Z,36.57
2018-12-23T09:23:55.116Z,37.10
2018-12-23T09:26:22.588Z,42.60
2018-12-23T09:28:50.057Z,38.93
2018-12-23T09:31:17.513Z,39.00
2018-12-23T09:33:45.078Z,35.87
2018-12-23T09:36:12.521Z,36.20
2018-12-23T09:38:39.959Z,41.13
2018-12-23T09:41:07.462Z,37.23
2018-12-23T09:43:34.892Z,34.70
2018-12-23T09:46:02.330Z,30.43
2018-12-23T09:48:29.844Z,34.70
2018-12-23T09:50:57.296Z,33.43
2018-12-23T09:53:24.771Z,32.87
2018-12-23T09:55:52.208Z,30.03
2018-12-23T09:58:19.640Z,33.50
2018-12-23T10:00:47.119Z,25.63
2018-12-23T10:03:14.551Z,25.47
2018-12-23T10:05:42.004Z,35.03
2018-12-23T10:08:10.388Z,32.30
2018-12-23T10:10:38.128Z,33.27
2018-12-23T10:13:06.542Z,28.10
2018-12-23T10:15:33.980Z,23.97
2018-12-23T10:18:01.409Z,21.67
2018-12-23T10:20:28.890Z,20.93
2018-12-23T10:22:56.333Z,23.07
2018-12-23T10:25:23.768Z,22.63
2018-12-23T10:27:51.201Z,32.50
2018-12-23T10:30:18.731Z,25.87
2018-12-23T10:32:46.263Z,23.20
2018-12-23T10:35:13.696Z,34.47
2018-12-23T10:37:41.171Z,23.23
2018-12-23T10:40:08.608Z,34.40
2018-12-23T10:42:36.047Z,33.60
2018-12-23T10:45:04.297Z,26.85
2018-12-23T10:47:31.729Z,30.13
2018-12-23T10:49:59.168Z,35.83
2018-12-23T10:52:26.671Z,20.43
2018-12-23T10:54:54.132Z,26.03
2018-12-23T10:57:21.583Z,22.70
2018-12-23T10:59:49.021Z,31.60
2018-12-23T11:02:16.464Z,31.60
2018-12-23T11:04:43.926Z,28.00
2018-12-23T11:07:11.401Z,22.57
2018-12-23T11:09:38.832Z,18.83
2018-12-23T11:12:06.339Z,24.60
2018-12-23T11:14:33.768Z,19.53
2018-12-23T11:17:01.218Z,27.17
2018-12-23T11:19:28.688Z,28.47
2018-12-23T11:21:56.128Z,30.13
2018-12-23T11:24:23.560Z,26.80
2018-12-23T11:26:50.996Z,21.27
2018-12-23T11:29:18.434Z,23.53
2018-12-23T11:31:45.873Z,27.67
2018-12-23T11:34:13.306Z,23.00
2018-12-23T11:36:40.743Z,26.50
2018-12-23T11:39:08.268Z,22.43
2018-12-23T11:41:35.733Z,30.43
2018-12-23T11:44:03.165Z,22.70
2018-12-23T11:46:30.601Z,23.87
2018-12-23T11:48:58.024Z,33.13
2018-12-23T11:51:25.543Z,20.13
2018-12-23T11:53:52.953Z,26.40
2018-12-23T11:56:20.420Z,20.03
2018-12-23T11:58:47.872Z,19.20
2018-12-23T12:01:15.319Z,18.63
2018-12-23T12:03:42.747Z,19.13
2018-12-23T12:06:10.185Z,9.10
2018-12-23T12:08:43.681Z,14.20
2018-12-23T12:11:07.036Z,9.87
2018-12-23T12:13:34.469Z,13.70
2018-12-23T12:16:01.901Z,6.20
2018-12-23T12:18:29.336Z,12.23
2018-12-23T12:20:56.759Z,14.13
2018-12-23T12:23:24.237Z,13.77
2018-12-23T12:25:51.743Z,11.33
2018-12-23T12:28:19.182Z,11.00
2018-12-23T12:30:46.608Z,13.60
2018-12-23T12:33:14.044Z,10.10
2018-12-23T12:35:41.474Z,11.97
2018-12-23T12:38:08.956Z,12.77
2018-12-23T12:40:36.422Z,16.37
2018-12-23T12:43:03.856Z,19.60
2018-12-23T12:45:31.276Z,22.70
2018-12-23T12:47:58.716Z,23.33
2018-12-23T12:50:26.143Z,17.27
2018-12-23T12:52:53.580Z,26.30
2018-12-23T12:55:21.049Z,27.97
2018-12-23T12:57:48.492Z,25.77
2018-12-23T13:00:15.920Z,28.73
2018-12-23T13:02:43.364Z,22.10
2018-12-23T13:05:10.801Z,25.40
2018-12-23T13:07:38.252Z,27.03
2018-12-23T13:10:05.718Z,27.17
2018-12-23T13:12:33.161Z,22.93
2018-12-23T13:15:00.591Z,29.80
2018-12-23T13:17:28.024Z,19.50
2018-12-23T13:19:55.448Z,16.83
2018-12-23T13:22:22.888Z,16.50
2018-12-23T13:24:50.307Z,17.67
2018-12-23T13:27:17.744Z,14.03
2018-12-23T13:29:45.164Z,13.83
2018-12-23T13:32:12.599Z,8.50
2018-12-23T13:34:40.027Z,10.50
2018-12-23T13:37:07.459Z,14.70
2018-12-23T13:39:34.892Z,12.13
2018-12-23T13:42:06.918Z,13.70
2018-12-23T13:44:42.253Z,13.37
2018-12-23T13:47:18.317Z,16.80
2018-12-23T13:53:27.186Z,14.70
2018-12-23T13:56:15.394Z,12.50
2018-12-23T13:58:52.976Z,16.40
2018-12-23T14:01:50.366Z,13.20
2018-12-23T14:04:24.907Z,17.47
2018-12-23T14:07:17.705Z,18.57
2018-12-23T14:10:10.262Z,21.00
2018-12-23T14:12:39.039Z,13.10
2018-12-23T14:15:07.922Z,18.47
2018-12-23T14:17:37.186Z,17.13
2018-12-23T14:20:06.676Z,18.50
2018-12-23T14:22:35.371Z,26.57
2018-12-23T14:25:04.951Z,22.03
2018-12-23T14:27:33.735Z,16.97
2018-12-23T14:30:02.335Z,23.40
2018-12-23T14:32:31.147Z,16.00
2018-12-23T14:34:59.971Z,18.03
2018-12-23T14:37:28.566Z,16.30
2018-12-23T14:39:57.118Z,16.10
2018-12-23T14:42:26.000Z,18.80
2018-12-23T14:44:54.678Z,14.40
2018-12-23T14:47:23.574Z,27.40
2018-12-23T14:49:52.411Z,18.93
2018-12-23T14:52:20.951Z,17.33
2018-12-23T14:54:49.777Z,17.73
2018-12-23T14:57:18.639Z,18.67
2018-12-23T14:59:47.491Z,12.27
2018-12-23T15:02:16.202Z,25.23
2018-12-23T15:04:45.069Z,18.37
2018-12-23T15:07:13.615Z,17.80
2018-12-23T15:09:42.472Z,17.50
2018-12-23T15:12:11.026Z,14.93
2018-12-23T15:14:39.590Z,17.73
2018-12-23T15:17:08.442Z,28.60
2018-12-23T15:19:37.308Z,19.40
2018-12-23T15:22:05.947Z,18.30
2018-12-23T15:24:34.520Z,27.80
2018-12-23T15:27:03.074Z,18.23
2018-12-23T15:29:31.937Z,23.90
2018-12-23T15:32:00.655Z,22.67
2018-12-23T15:34:29.265Z,26.43
2018-12-23T15:36:57.935Z,19.27
2018-12-23T15:39:26.520Z,23.93
2018-12-23T15:41:55.455Z,21.17
2018-12-23T15:44:24.007Z,21.57
2018-12-23T15:46:52.917Z,27.70
2018-12-23T15:49:21.581Z,21.67
2018-12-23T15:51:50.236Z,27.20
2018-12-23T15:54:19.055Z,24.83
2018-12-23T15:56:47.700Z,29.67
2018-12-23T15:59:16.267Z,27.93
2018-12-23T16:01:44.898Z,25.87
2018-12-23T16:04:13.694Z,32.57
2018-12-23T16:06:42.249Z,21.80
2018-12-23T16:09:11.120Z,25.13
2018-12-23T16:11:39.769Z,26.40
2018-12-23T16:14:08.593Z,20.27
2018-12-23T16:16:37.539Z,24.83
2018-12-23T16:19:06.457Z,25.80
2018-12-23T16:21:35.359Z,29.77
2018-12-23T16:24:04.199Z,25.30
2018-12-23T16:26:32.761Z,27.00
2018-12-23T16:29:01.599Z,24.10
2018-12-23T16:31:30.439Z,35.63
2018-12-23T16:33:59.088Z,21.97
2018-12-23T16:36:27.711Z,23.90
2018-12-23T16:38:56.276Z,19.30
2018-12-23T16:41:25.143Z,21.50
2018-12-23T16:43:53.988Z,23.80
2018-12-23T16:46:22.543Z,29.33
2018-12-23T16:48:51.122Z,38.67
2018-12-23T16:51:19.960Z,33.33
2018-12-23T16:53:48.778Z,31.87
2018-12-23T16:56:17.324Z,25.60
2018-12-23T16:58:46.239Z,26.27
2018-12-23T17:01:14.791Z,29.90
2018-12-23T17:03:43.603Z,36.30
2018-12-23T17:06:12.495Z,25.80
2018-12-23T17:08:41.381Z,27.67
2018-12-23T17:11:10.228Z,28.90
2018-12-23T17:13:38.902Z,28.30
2018-12-23T17:16:07.431Z,21.43
2018-12-23T17:18:35.998Z,15.87
2018-12-23T17:21:04.547Z,19.23
2018-12-23T17:23:33.102Z,20.23
2018-12-23T17:26:01.708Z,17.67
2018-12-23T17:28:30.658Z,18.77
2018-12-23T17:30:59.638Z,24.03
2018-12-23T17:33:28.379Z,23.83
2018-12-23T17:35:57.177Z,20.60
2018-12-23T17:38:25.924Z,28.87
2018-12-23T17:40:54.654Z,24.33
2018-12-23T17:43:23.337Z,25.57
2018-12-23T17:45:52.012Z,22.83
2018-12-23T17:48:20.737Z,23.63
2018-12-23T17:50:49.844Z,25.90
2018-12-23T17:53:18.996Z,24.40
2018-12-23T17:55:47.718Z,29.90
2018-12-23T17:58:16.877Z,27.33
2018-12-23T18:00:45.639Z,26.13
2018-12-23T18:03:14.424Z,32.63
2018-12-23T18:05:43.427Z,29.67
2018-12-23T18:08:12.675Z,30.40
2018-12-23T18:10:41.278Z,25.87
2018-12-23T18:13:10.232Z,23.07
2018-12-23T18:15:38.850Z,23.80
2018-12-23T18:18:07.527Z,22.37
2018-12-23T18:20:36.644Z,28.23
2018-12-23T18:23:05.721Z,26.67
2018-12-23T18:25:34.585Z,25.67
2018-12-23T18:28:03.874Z,22.80
2018-12-23T18:30:32.460Z,19.60
2018-12-23T18:33:01.003Z,18.60
2018-12-23T18:35:29.813Z,15.77
2018-12-23T18:37:58.731Z,15.30
2018-12-23T18:40:33.322Z,14.00
2018-12-23T18:42:57.689Z,11.23
2018-12-23T18:45:26.567Z,10.97
2018-12-23T18:47:55.457Z,11.53
2018-12-23T18:50:24.342Z,11.30
2018-12-23T18:52:53.141Z,9.60
2018-12-23T18:55:22.519Z,10.03
2018-12-23T18:57:51.739Z,8.30
2018-12-23T19:00:20.545Z,11.00
2018-12-23T19:02:49.276Z,10.17
2018-12-23T19:05:18.062Z,9.43
2018-12-23T19:07:46.891Z,12.40
2018-12-23T19:10:24.251Z,10.10
2018-12-23T19:12:59.175Z,10.77
2018-12-23T19:15:33.667Z,11.90
2018-12-23T19:18:05.533Z,11.87
2018-12-23T19:21:11.978Z,14.17
2018-12-23T19:23:49.973Z,11.00
2018-12-23T19:26:56.283Z,9.97
2018-12-23T19:29:30.782Z,9.27
2018-12-23T19:32:02.955Z,7.60
2018-12-23T19:34:55.422Z,7.20
2018-12-23T19:37:39.056Z,6.70
2018-12-23T19:40:23.200Z,4.87
2018-12-23T19:43:28.189Z,5.60
2018-12-23T19:46:32.919Z,4.40
2018-12-23T19:49:13.939Z,6.80
2018-12-23T19:51:48.621Z,7.10
2018-12-23T19:54:38.302Z,5.73
2018-12-23T19:57:29.710Z,7.50
2018-12-23T20:00:01.630Z,5.67
2018-12-23T20:02:42.116Z,6.30
2018-12-23T20:05:26.091Z,7.10
2018-12-23T20:08:18.002Z,6.70
2018-12-23T20:11:06.192Z,6.40
2018-12-23T20:13:51.890Z,7.37
2018-12-23T20:16:45.882Z,6.10
2018-12-23T20:19:33.909Z,4.87
2018-12-23T20:22:14.359Z,6.23
2018-12-23T20:24:52.024Z,7.47
2018-12-23T20:27:35.254Z,5.87
2018-12-23T20:30:18.821Z,5.10
2018-12-23T20:32:58.928Z,5.10
2018-12-23T20:35:38.782Z,4.77
2018-12-23T20:38:10.708Z,4.90
2018-12-23T20:41:15.045Z,5.50
2018-12-23T20:44:01.648Z,9.50
2018-12-23T20:46:36.029Z,3.07
2018-12-23T20:49:33.309Z,5.13
2018-12-23T20:52:10.970Z,4.77
2018-12-23T20:54:54.532Z,4.57
2018-12-23T20:57:28.821Z,5.47
2018-12-23T21:00:03.925Z,6.33
2018-12-23T21:02:54.802Z,8.70
2018-12-23T21:05:42.640Z,3.10
2018-12-23T21:08:14.258Z,5.80
2018-12-23T21:10:49.082Z,3.43
2018-12-23T21:13:33.037Z,6.37
2018-12-23T21:16:10.788Z,4.97
2018-12-23T21:19:12.457Z,4.00
2018-12-23T21:21:56.111Z,6.83
2018-12-23T21:24:30.430Z,6.33
2018-12-23T21:27:16.891Z,5.53
2018-12-23T21:29:54.507Z,4.80
2018-12-23T21:32:29.201Z,4.37
2018-12-23T21:35:18.918Z,5.47
2018-12-23T21:38:12.236Z,3.83
2018-12-23T21:40:52.920Z,7.50
2018-12-23T21:43:33.645Z,5.10
2018-12-23T21:46:21.647Z,7.00
2018-12-23T21:49:08.654Z,7.90
2018-12-23T21:51:58.341Z,5.53
2018-12-23T21:54:52.360Z,10.63
2018-12-23T21:57:35.675Z,6.87
2018-12-23T22:00:18.742Z,8.00
2018-12-23T22:03:02.436Z,9.30
2018-12-23T22:05:58.056Z,11.10
2018-12-23T22:08:41.480Z,9.50
2018-12-23T22:11:36.010Z,10.67
2018-12-23T22:14:04.575Z,7.97
2018-12-23T22:16:33.420Z,17.70
2018-12-23T22:19:02.035Z,11.90
2018-12-23T22:21:30.907Z,7.70
2018-12-23T22:23:59.723Z,12.73
2018-12-23T22:26:28.586Z,8.33
2018-12-23T22:28:57.360Z,7.87
2018-12-23T22:31:26.302Z,8.17
2018-12-23T22:33:55.500Z,7.23
2018-12-23T22:36:24.115Z,7.13
2018-12-23T22:38:52.696Z,6.83
2018-12-23T22:41:21.565Z,8.50
2018-12-23T22:43:50.101Z,6.93
2018-12-23T22:46:18.680Z,5.73
2018-12-23T22:48:47.274Z,7.70
2018-12-23T22:51:15.823Z,6.20
2018-12-23T22:53:44.392Z,8.10
2018-12-23T22:56:12.927Z,7.30
2018-12-23T22:58:41.815Z,9.53
2018-12-23T23:01:10.680Z,8.30
2018-12-23T23:03:39.208Z,6.13
2018-12-23T23:06:08.059Z,6.43
2018-12-23T23:08:36.893Z,6.27
2018-12-23T23:11:05.466Z,5.40
2018-12-23T23:13:34.007Z,7.70
2018-12-23T23:16:02.556Z,9.30
2018-12-23T23:18:31.387Z,9.07
2018-12-23T23:20:59.931Z,8.83
2018-12-23T23:23:28.755Z,8.50
2018-12-23T23:25:57.662Z,10.40
2018-12-23T23:28:26.215Z,12.40
2018-12-23T23:30:54.763Z,11.30
2018-12-23T23:33:24.205Z,7.70
2018-12-23T23:35:52.862Z,4.90
2018-12-23T23:38:21.736Z,5.90
2018-12-23T23:40:50.436Z,4.93
2018-12-23T23:43:20.757Z,5.20
2018-12-23T23:45:49.299Z,6.30
2018-12-23T23:48:17.832Z,5.53
2018-12-23T23:50:46.709Z,6.47
2018-12-23T23:53:15.550Z,3.70
2018-12-23T23:55:44.368Z,5.53
2018-12-23T23:58:12.970Z,5.00
